EDW121Q DTTJ-LSZH
Flight info
| Callsign | EDW121Q |
|---|---|
| Flight time | 2h 11m |
| Altitude | 24000 |
| Route | KBIRA1B KBIRA V334 NEDOS/N0451F360 UZ153 TBK UG869 DOPEL DCT DEC DCT UPDUT DCT CORSI DCT OKROK DCT AKUTI DCT TORTU DCT ERTEV DCT CANNE Z651 KELIP |
| Aircraft | A320/M-SDE3FGHIRWY/LB1 |
Departure
| Time | 2026-04-18 09:29 |
|---|---|
| Airport | Djerba Zarzis International Airport (DTTJ) |
Arrival
| Time | 2026-04-18 11:40 |
|---|---|
| Airport | Zürich Airport (LSZH) |
| Time | Latitude | Longitude | Altitude | Speed | Heading |
|---|---|---|---|---|---|
| 2026-04-18 09:09 | 33.87281 | 10.77430 | 27 ft | 0 kts | 134° |
| 2026-04-18 09:19 | 33.87282 | 10.77428 | 27 ft | 2 kts | 134° |
| 2026-04-18 09:19 | 33.87294 | 10.77413 | 27 ft | 2 kts | 135° |
| 2026-04-18 09:19 | 33.87305 | 10.77399 | 27 ft | 2 kts | 134° |
| 2026-04-18 09:19 | 33.87317 | 10.77385 | 27 ft | 2 kts | 134° |
| 2026-04-18 09:20 | 33.87328 | 10.77371 | 27 ft | 2 kts | 134° |
| 2026-04-18 09:20 | 33.87339 | 10.77356 | 27 ft | 2 kts | 134° |
| 2026-04-18 09:20 | 33.87351 | 10.77342 | 27 ft | 2 kts | 133° |
| 2026-04-18 09:20 | 33.87362 | 10.77327 | 27 ft | 2 kts | 131° |
| 2026-04-18 09:21 | 33.87372 | 10.77312 | 27 ft | 2 kts | 114° |
| 2026-04-18 09:21 | 33.87375 | 10.77303 | 27 ft | 0 kts | 82° |
| 2026-04-18 09:23 | 33.87376 | 10.77314 | 27 ft | 4 kts | 83° |
| 2026-04-18 09:23 | 33.87380 | 10.77379 | 27 ft | 11 kts | 93° |
| 2026-04-18 09:24 | 33.87381 | 10.77497 | 27 ft | 18 kts | 88° |
| 2026-04-18 09:24 | 33.87385 | 10.77661 | 26 ft | 22 kts | 88° |
| 2026-04-18 09:24 | 33.87389 | 10.77836 | 27 ft | 14 kts | 88° |
| 2026-04-18 09:24 | 33.87392 | 10.77980 | 27 ft | 21 kts | 89° |
| 2026-04-18 09:25 | 33.87396 | 10.78123 | 27 ft | 20 kts | 88° |
| 2026-04-18 09:25 | 33.87393 | 10.78271 | 27 ft | 15 kts | 94° |
| 2026-04-18 09:25 | 33.87396 | 10.78403 | 27 ft | 17 kts | 88° |
| 2026-04-18 09:25 | 33.87401 | 10.78549 | 22 ft | 16 kts | 77° |
| 2026-04-18 09:26 | 33.87505 | 10.78603 | 21 ft | 20 kts | 353° |
| 2026-04-18 09:26 | 33.87568 | 10.78684 | 20 ft | 17 kts | 85° |
| 2026-04-18 09:26 | 33.87572 | 10.78847 | 18 ft | 24 kts | 88° |
| 2026-04-18 09:26 | 33.87578 | 10.79072 | 22 ft | 29 kts | 88° |
| 2026-04-18 09:27 | 33.87585 | 10.79276 | 21 ft | 19 kts | 77° |
| 2026-04-18 09:27 | 33.87611 | 10.79368 | 22 ft | 10 kts | 119° |
| 2026-04-18 09:27 | 33.87585 | 10.79346 | 21 ft | 0 kts | 272° |
| 2026-04-18 09:28 | 33.87585 | 10.79344 | 21 ft | 2 kts | 272° |
| 2026-04-18 09:28 | 33.87581 | 10.79164 | 22 ft | 59 kts | 269° |
| 2026-04-18 09:28 | 33.87562 | 10.78360 | 19 ft | 130 kts | 267° |
| 2026-04-18 09:28 | 33.87529 | 10.77293 | 112 ft | 165 kts | 268° |
| 2026-04-18 09:29 | 33.87519 | 10.76986 | 251 ft | 166 kts | 268° |
| 2026-04-18 09:29 | 33.87606 | 10.75608 | 900 ft | 167 kts | 292° |
| 2026-04-18 09:29 | 33.88354 | 10.74551 | 1635 ft | 169 kts | 334° |
| 2026-04-18 09:29 | 33.89501 | 10.74279 | 2311 ft | 172 kts | 4° |
| 2026-04-18 09:30 | 33.90733 | 10.74401 | 2635 ft | 185 kts | 4° |
| 2026-04-18 09:30 | 33.92045 | 10.74258 | 2914 ft | 198 kts | 342° |
| 2026-04-18 09:30 | 33.93400 | 10.73673 | 3116 ft | 216 kts | 341° |
| 2026-04-18 09:30 | 33.94863 | 10.73039 | 3382 ft | 232 kts | 341° |
| 2026-04-18 09:31 | 33.96438 | 10.72354 | 3652 ft | 248 kts | 341° |
| 2026-04-18 09:31 | 33.98096 | 10.71632 | 4029 ft | 257 kts | 341° |
| 2026-04-18 09:31 | 33.99789 | 10.70894 | 4574 ft | 260 kts | 341° |
| 2026-04-18 09:31 | 34.01491 | 10.70152 | 5120 ft | 261 kts | 341° |
| 2026-04-18 09:32 | 34.03206 | 10.69405 | 5651 ft | 262 kts | 341° |
| 2026-04-18 09:32 | 34.04929 | 10.68654 | 6168 ft | 264 kts | 341° |
| 2026-04-18 09:32 | 34.06660 | 10.67901 | 6673 ft | 266 kts | 341° |
| 2026-04-18 09:32 | 34.08406 | 10.67142 | 7146 ft | 267 kts | 341° |
| 2026-04-18 09:33 | 34.10164 | 10.66378 | 7614 ft | 269 kts | 341° |
| 2026-04-18 09:33 | 34.11935 | 10.65610 | 8079 ft | 271 kts | 341° |
| 2026-04-18 09:33 | 34.13711 | 10.64839 | 8532 ft | 273 kts | 341° |
| 2026-04-18 09:33 | 34.15531 | 10.64046 | 8995 ft | 275 kts | 341° |
| 2026-04-18 09:34 | 34.17332 | 10.63259 | 9437 ft | 277 kts | 341° |
| 2026-04-18 09:34 | 34.19145 | 10.62465 | 9867 ft | 279 kts | 341° |
| 2026-04-18 09:34 | 34.20976 | 10.61664 | 10230 ft | 283 kts | 341° |
| 2026-04-18 09:34 | 34.22867 | 10.60839 | 10354 ft | 294 kts | 341° |
| 2026-04-18 09:35 | 34.24820 | 10.59985 | 10472 ft | 303 kts | 341° |
| 2026-04-18 09:35 | 34.26831 | 10.59106 | 10587 ft | 311 kts | 341° |
| 2026-04-18 09:35 | 34.28887 | 10.58208 | 10724 ft | 317 kts | 341° |
| 2026-04-18 09:35 | 34.30965 | 10.57297 | 10923 ft | 319 kts | 341° |
| 2026-04-18 09:36 | 34.33050 | 10.56380 | 11162 ft | 320 kts | 341° |
| 2026-04-18 09:36 | 34.35151 | 10.55455 | 11388 ft | 321 kts | 341° |
| 2026-04-18 09:36 | 34.37256 | 10.54530 | 11602 ft | 322 kts | 341° |
| 2026-04-18 09:36 | 34.39367 | 10.53603 | 11823 ft | 323 kts | 341° |
| 2026-04-18 09:37 | 34.41469 | 10.52680 | 12253 ft | 315 kts | 341° |
| 2026-04-18 09:37 | 34.43470 | 10.51800 | 13088 ft | 297 kts | 341° |
| 2026-04-18 09:37 | 34.45331 | 10.50979 | 13944 ft | 273 kts | 341° |
| 2026-04-18 09:37 | 34.47087 | 10.50204 | 14314 ft | 266 kts | 341° |
| 2026-04-18 09:38 | 34.48826 | 10.49440 | 14482 ft | 266 kts | 341° |
| 2026-04-18 09:38 | 34.50576 | 10.48675 | 14708 ft | 269 kts | 341° |
| 2026-04-18 09:38 | 34.52347 | 10.47900 | 15039 ft | 276 kts | 341° |
| 2026-04-18 09:38 | 34.53600 | 10.47349 | 15193 ft | 289 kts | 341° |
| 2026-04-18 09:39 | 34.55546 | 10.46493 | 15479 ft | 306 kts | 341° |
| 2026-04-18 09:39 | 34.57600 | 10.45588 | 15755 ft | 322 kts | 341° |
| 2026-04-18 09:39 | 34.59759 | 10.44636 | 16013 ft | 339 kts | 341° |
| 2026-04-18 09:39 | 34.62029 | 10.43633 | 16248 ft | 355 kts | 341° |
| 2026-04-18 09:40 | 34.64404 | 10.42586 | 16497 ft | 369 kts | 341° |
| 2026-04-18 09:40 | 34.66841 | 10.41512 | 17000 ft | 375 kts | 341° |
| 2026-04-18 09:40 | 34.69305 | 10.40421 | 17615 ft | 378 kts | 341° |
| 2026-04-18 09:40 | 34.71784 | 10.39323 | 18248 ft | 381 kts | 341° |
| 2026-04-18 09:41 | 34.74284 | 10.38215 | 18804 ft | 384 kts | 341° |
| 2026-04-18 09:41 | 34.76807 | 10.37097 | 19339 ft | 387 kts | 341° |
| 2026-04-18 09:41 | 34.79344 | 10.35972 | 19894 ft | 390 kts | 341° |
| 2026-04-18 09:41 | 34.81898 | 10.34837 | 20442 ft | 392 kts | 341° |
| 2026-04-18 09:42 | 34.84469 | 10.33694 | 20968 ft | 395 kts | 341° |
| 2026-04-18 09:42 | 34.87061 | 10.32541 | 21482 ft | 397 kts | 341° |
| 2026-04-18 09:42 | 34.89665 | 10.31382 | 21983 ft | 400 kts | 341° |
| 2026-04-18 09:42 | 34.92288 | 10.30214 | 22468 ft | 403 kts | 341° |
| 2026-04-18 09:43 | 34.94929 | 10.29041 | 22939 ft | 405 kts | 341° |
| 2026-04-18 09:43 | 34.97586 | 10.27858 | 23408 ft | 408 kts | 341° |
| 2026-04-18 09:43 | 35.00255 | 10.26667 | 23827 ft | 410 kts | 341° |
| 2026-04-18 09:43 | 35.02947 | 10.25464 | 24088 ft | 411 kts | 341° |
| 2026-04-18 09:44 | 35.05654 | 10.24256 | 24143 ft | 419 kts | 341° |
| 2026-04-18 09:44 | 35.08420 | 10.23019 | 24148 ft | 426 kts | 341° |
| 2026-04-18 09:44 | 35.11202 | 10.21772 | 24150 ft | 426 kts | 341° |
| 2026-04-18 09:44 | 35.13997 | 10.20519 | 24224 ft | 432 kts | 341° |
| 2026-04-18 09:45 | 35.16839 | 10.19245 | 24339 ft | 439 kts | 341° |
| 2026-04-18 09:45 | 35.19731 | 10.17949 | 24458 ft | 445 kts | 341° |
| 2026-04-18 09:45 | 35.22652 | 10.16641 | 24570 ft | 450 kts | 341° |
| 2026-04-18 09:45 | 35.25638 | 10.15306 | 24688 ft | 454 kts | 341° |
| 2026-04-18 09:46 | 35.28614 | 10.13971 | 24807 ft | 457 kts | 341° |
| 2026-04-18 09:46 | 35.31607 | 10.12625 | 24962 ft | 458 kts | 341° |
| 2026-04-18 09:46 | 35.34600 | 10.11279 | 25172 ft | 458 kts | 341° |
| 2026-04-18 09:46 | 35.37592 | 10.09929 | 25415 ft | 457 kts | 341° |
| 2026-04-18 09:47 | 35.40571 | 10.08581 | 25666 ft | 456 kts | 341° |
| 2026-04-18 09:47 | 35.43545 | 10.07236 | 25918 ft | 455 kts | 341° |
| 2026-04-18 09:47 | 35.46520 | 10.05893 | 26188 ft | 454 kts | 341° |
| 2026-04-18 09:47 | 35.49477 | 10.04558 | 26464 ft | 453 kts | 341° |
| 2026-04-18 09:48 | 35.52436 | 10.03220 | 26752 ft | 452 kts | 341° |
| 2026-04-18 09:48 | 35.55386 | 10.01889 | 27029 ft | 451 kts | 341° |
| 2026-04-18 09:48 | 35.58324 | 10.00561 | 27319 ft | 450 kts | 341° |
| 2026-04-18 09:48 | 35.61243 | 9.99237 | 27609 ft | 449 kts | 341° |
| 2026-04-18 09:49 | 35.64167 | 9.97907 | 27898 ft | 448 kts | 341° |
| 2026-04-18 09:49 | 35.67075 | 9.96587 | 28196 ft | 447 kts | 341° |
| 2026-04-18 09:49 | 35.69987 | 9.95265 | 28496 ft | 446 kts | 341° |
| 2026-04-18 09:49 | 35.72898 | 9.93944 | 28793 ft | 445 kts | 341° |
| 2026-04-18 09:50 | 35.75798 | 9.92625 | 29097 ft | 444 kts | 341° |
| 2026-04-18 09:50 | 35.78688 | 9.91306 | 29401 ft | 443 kts | 340° |
| 2026-04-18 09:50 | 35.81576 | 9.89988 | 29701 ft | 442 kts | 341° |
| 2026-04-18 09:50 | 35.84456 | 9.88678 | 30007 ft | 441 kts | 341° |
| 2026-04-18 09:51 | 35.87336 | 9.87365 | 30294 ft | 440 kts | 340° |
| 2026-04-18 09:51 | 35.90207 | 9.86053 | 30552 ft | 439 kts | 340° |
| 2026-04-18 09:51 | 35.93062 | 9.84744 | 30820 ft | 438 kts | 340° |
| 2026-04-18 09:51 | 35.95915 | 9.83436 | 31084 ft | 437 kts | 340° |
| 2026-04-18 09:52 | 35.98758 | 9.82135 | 31351 ft | 435 kts | 341° |
| 2026-04-18 09:52 | 36.01600 | 9.80835 | 31617 ft | 434 kts | 341° |
| 2026-04-18 09:52 | 36.04427 | 9.79544 | 31888 ft | 433 kts | 341° |
| 2026-04-18 09:52 | 36.07250 | 9.78255 | 32160 ft | 432 kts | 341° |
| 2026-04-18 09:53 | 36.10061 | 9.76968 | 32433 ft | 430 kts | 341° |
| 2026-04-18 09:53 | 36.12864 | 9.75679 | 32711 ft | 429 kts | 341° |
| 2026-04-18 09:53 | 36.15662 | 9.74392 | 32987 ft | 428 kts | 341° |
| 2026-04-18 09:53 | 36.18479 | 9.73098 | 33267 ft | 427 kts | 341° |
| 2026-04-18 09:54 | 36.21226 | 9.71836 | 33541 ft | 425 kts | 341° |
| 2026-04-18 09:54 | 36.24032 | 9.70546 | 33832 ft | 424 kts | 341° |
| 2026-04-18 09:54 | 36.26787 | 9.69275 | 34106 ft | 423 kts | 341° |
| 2026-04-18 09:54 | 36.29509 | 9.68014 | 34352 ft | 421 kts | 341° |
| 2026-04-18 09:55 | 36.32284 | 9.66725 | 34590 ft | 420 kts | 341° |
| 2026-04-18 09:55 | 36.35020 | 9.65452 | 34817 ft | 420 kts | 341° |
| 2026-04-18 09:55 | 36.37744 | 9.64186 | 35029 ft | 419 kts | 341° |
| 2026-04-18 09:55 | 36.40478 | 9.62921 | 35229 ft | 418 kts | 341° |
| 2026-04-18 09:56 | 36.43206 | 9.61660 | 35425 ft | 418 kts | 341° |
| 2026-04-18 09:56 | 36.45927 | 9.60403 | 35612 ft | 418 kts | 341° |
| 2026-04-18 09:56 | 36.48656 | 9.59142 | 35801 ft | 417 kts | 341° |
| 2026-04-18 09:56 | 36.51374 | 9.57884 | 35971 ft | 417 kts | 341° |
| 2026-04-18 09:57 | 36.54096 | 9.56621 | 36129 ft | 417 kts | 340° |
| 2026-04-18 09:57 | 36.56815 | 9.55356 | 36170 ft | 417 kts | 340° |
| 2026-04-18 09:57 | 36.62246 | 9.52827 | 36166 ft | 417 kts | 340° |
| 2026-04-18 09:58 | 36.67671 | 9.50293 | 36160 ft | 417 kts | 340° |
| 2026-04-18 09:58 | 36.73100 | 9.47759 | 36167 ft | 417 kts | 340° |
| 2026-04-18 09:59 | 36.78530 | 9.45216 | 36171 ft | 417 kts | 340° |
| 2026-04-18 10:00 | 36.86680 | 9.41401 | 36169 ft | 417 kts | 340° |
| 2026-04-18 10:00 | 36.92113 | 9.38853 | 36171 ft | 417 kts | 340° |
| 2026-04-18 10:01 | 36.97532 | 9.36294 | 36175 ft | 417 kts | 340° |
| 2026-04-18 10:01 | 37.02994 | 9.33717 | 36172 ft | 417 kts | 340° |
| 2026-04-18 10:02 | 37.08424 | 9.31156 | 36173 ft | 417 kts | 340° |
| 2026-04-18 10:02 | 37.13853 | 9.28598 | 36177 ft | 417 kts | 340° |
| 2026-04-18 10:03 | 37.19288 | 9.26031 | 36176 ft | 417 kts | 340° |
| 2026-04-18 10:03 | 37.24727 | 9.23458 | 36174 ft | 418 kts | 340° |
| 2026-04-18 10:04 | 37.30161 | 9.20877 | 36176 ft | 418 kts | 340° |
| 2026-04-18 10:04 | 37.35594 | 9.18288 | 36172 ft | 418 kts | 340° |
| 2026-04-18 10:05 | 37.41040 | 9.15700 | 36180 ft | 418 kts | 340° |
| 2026-04-18 10:05 | 37.46482 | 9.13106 | 36178 ft | 419 kts | 340° |
| 2026-04-18 10:06 | 37.51934 | 9.10503 | 36180 ft | 418 kts | 340° |
| 2026-04-18 10:06 | 37.57415 | 9.07885 | 36176 ft | 419 kts | 340° |
| 2026-04-18 10:07 | 37.62857 | 9.05278 | 36180 ft | 419 kts | 340° |
| 2026-04-18 10:07 | 37.68307 | 9.02663 | 36176 ft | 419 kts | 340° |
| 2026-04-18 10:08 | 37.73763 | 9.00045 | 36177 ft | 419 kts | 340° |
| 2026-04-18 10:08 | 37.79212 | 8.97421 | 36175 ft | 419 kts | 340° |
| 2026-04-18 10:09 | 37.84668 | 8.94782 | 36173 ft | 419 kts | 340° |
| 2026-04-18 10:09 | 37.90116 | 8.92152 | 36170 ft | 420 kts | 340° |
| 2026-04-18 10:10 | 37.95576 | 8.89535 | 36175 ft | 419 kts | 342° |
| 2026-04-18 10:10 | 38.00328 | 8.88371 | 36173 ft | 420 kts | 357° |
| 2026-04-18 10:11 | 38.06173 | 8.88364 | 36169 ft | 420 kts | 359° |
| 2026-04-18 10:11 | 38.12014 | 8.88369 | 36171 ft | 420 kts | 359° |
| 2026-04-18 10:12 | 38.17868 | 8.88359 | 36169 ft | 420 kts | 359° |
| 2026-04-18 10:12 | 38.23719 | 8.88359 | 36169 ft | 420 kts | 359° |
| 2026-04-18 10:13 | 38.29603 | 8.88369 | 36170 ft | 420 kts | 359° |
| 2026-04-18 10:13 | 38.35450 | 8.88369 | 36164 ft | 420 kts | 359° |
| 2026-04-18 10:14 | 38.41296 | 8.88365 | 36162 ft | 420 kts | 359° |
| 2026-04-18 10:14 | 38.47147 | 8.88357 | 36157 ft | 421 kts | 359° |
| 2026-04-18 10:15 | 38.53000 | 8.88362 | 36158 ft | 421 kts | 0° |
| 2026-04-18 10:15 | 38.58849 | 8.88805 | 36153 ft | 421 kts | 4° |
| 2026-04-18 10:16 | 38.64681 | 8.89561 | 36155 ft | 421 kts | 5° |
| 2026-04-18 10:16 | 38.70509 | 8.90285 | 36156 ft | 421 kts | 4° |
| 2026-04-18 10:17 | 38.76355 | 8.90916 | 36148 ft | 421 kts | 4° |
| 2026-04-18 10:17 | 38.82195 | 8.91526 | 36149 ft | 421 kts | 4° |
| 2026-04-18 10:18 | 38.88031 | 8.92151 | 36147 ft | 421 kts | 4° |
| 2026-04-18 10:18 | 38.93875 | 8.92783 | 36147 ft | 421 kts | 4° |
| 2026-04-18 10:19 | 38.99714 | 8.93416 | 36140 ft | 421 kts | 4° |
| 2026-04-18 10:19 | 39.05558 | 8.94044 | 36131 ft | 421 kts | 4° |
| 2026-04-18 10:20 | 39.11394 | 8.94673 | 36125 ft | 421 kts | 4° |
| 2026-04-18 10:20 | 39.17272 | 8.95312 | 36124 ft | 421 kts | 4° |
| 2026-04-18 10:21 | 39.23109 | 8.95953 | 36119 ft | 421 kts | 4° |
| 2026-04-18 10:21 | 39.28951 | 8.96596 | 36089 ft | 421 kts | 4° |
| 2026-04-18 10:22 | 39.34794 | 8.97232 | 36091 ft | 421 kts | 4° |
| 2026-04-18 10:22 | 39.40646 | 8.97129 | 36084 ft | 421 kts | 356° |
| 2026-04-18 10:23 | 39.46492 | 8.96742 | 36092 ft | 421 kts | 357° |
| 2026-04-18 10:23 | 39.52343 | 8.96373 | 36099 ft | 421 kts | 357° |
| 2026-04-18 10:24 | 39.58191 | 8.95992 | 36112 ft | 421 kts | 356° |
| 2026-04-18 10:24 | 39.64045 | 8.95601 | 36125 ft | 421 kts | 356° |
| 2026-04-18 10:25 | 39.69895 | 8.95210 | 36136 ft | 421 kts | 357° |
| 2026-04-18 10:25 | 39.75748 | 8.94833 | 36134 ft | 421 kts | 357° |
| 2026-04-18 10:26 | 39.81606 | 8.94456 | 36140 ft | 421 kts | 356° |
| 2026-04-18 10:26 | 39.87468 | 8.94076 | 36138 ft | 422 kts | 357° |
| 2026-04-18 10:27 | 39.93329 | 8.93688 | 36143 ft | 422 kts | 356° |
| 2026-04-18 10:27 | 39.99233 | 8.93288 | 36151 ft | 422 kts | 356° |
| 2026-04-18 10:28 | 40.05098 | 8.92895 | 36158 ft | 422 kts | 356° |
| 2026-04-18 10:28 | 40.10972 | 8.92505 | 36152 ft | 422 kts | 356° |
| 2026-04-18 10:29 | 40.16842 | 8.92111 | 36154 ft | 422 kts | 356° |
| 2026-04-18 10:29 | 40.22710 | 8.91723 | 36149 ft | 422 kts | 356° |
| 2026-04-18 10:30 | 40.28580 | 8.91342 | 36148 ft | 423 kts | 356° |
| 2026-04-18 10:30 | 40.34458 | 8.90954 | 36144 ft | 423 kts | 356° |
| 2026-04-18 10:31 | 40.40337 | 8.90555 | 36145 ft | 423 kts | 356° |
| 2026-04-18 10:31 | 40.46218 | 8.90154 | 36146 ft | 423 kts | 356° |
| 2026-04-18 10:32 | 40.52098 | 8.89763 | 36145 ft | 423 kts | 356° |
| 2026-04-18 10:32 | 40.57982 | 8.89373 | 36143 ft | 423 kts | 356° |
| 2026-04-18 10:33 | 40.63863 | 8.88979 | 36140 ft | 423 kts | 356° |
| 2026-04-18 10:33 | 40.69753 | 8.88584 | 36143 ft | 424 kts | 356° |
| 2026-04-18 10:34 | 40.75644 | 8.88184 | 36146 ft | 424 kts | 356° |
| 2026-04-18 10:34 | 40.81581 | 8.87775 | 36142 ft | 424 kts | 356° |
| 2026-04-18 10:35 | 40.87474 | 8.87375 | 36146 ft | 425 kts | 356° |
| 2026-04-18 10:35 | 40.93378 | 8.86980 | 36151 ft | 425 kts | 356° |
| 2026-04-18 10:36 | 40.99285 | 8.86577 | 36159 ft | 425 kts | 356° |
| 2026-04-18 10:36 | 41.05190 | 8.86167 | 36153 ft | 425 kts | 356° |
| 2026-04-18 10:37 | 41.11097 | 8.85765 | 36150 ft | 425 kts | 356° |
| 2026-04-18 10:37 | 41.17009 | 8.85356 | 36150 ft | 425 kts | 356° |
| 2026-04-18 10:38 | 41.22911 | 8.84955 | 36146 ft | 425 kts | 355° |
| 2026-04-18 10:38 | 41.28672 | 8.83285 | 36136 ft | 425 kts | 342° |
| 2026-04-18 10:39 | 41.34402 | 8.81452 | 36129 ft | 425 kts | 355° |
| 2026-04-18 10:39 | 41.40322 | 8.81606 | 36125 ft | 426 kts | 1° |
| 2026-04-18 10:40 | 41.46252 | 8.81932 | 36130 ft | 426 kts | 1° |
| 2026-04-18 10:40 | 41.52185 | 8.82235 | 36136 ft | 427 kts | 1° |
| 2026-04-18 10:41 | 41.58113 | 8.82535 | 36147 ft | 426 kts | 1° |
| 2026-04-18 10:41 | 41.64049 | 8.82850 | 36142 ft | 427 kts | 1° |
| 2026-04-18 10:42 | 41.69985 | 8.83167 | 36159 ft | 427 kts | 1° |
| 2026-04-18 10:42 | 41.75921 | 8.83481 | 36159 ft | 427 kts | 1° |
| 2026-04-18 10:43 | 41.80894 | 8.83746 | 36163 ft | 427 kts | 1° |
| 2026-04-18 10:43 | 41.86822 | 8.84063 | 36162 ft | 427 kts | 1° |
| 2026-04-18 10:44 | 41.92755 | 8.84384 | 36163 ft | 426 kts | 1° |
| 2026-04-18 10:44 | 41.98681 | 8.84700 | 36158 ft | 427 kts | 1° |
| 2026-04-18 10:45 | 42.04616 | 8.85017 | 36158 ft | 427 kts | 1° |
| 2026-04-18 10:45 | 42.10552 | 8.85332 | 36154 ft | 427 kts | 1° |
| 2026-04-18 10:46 | 42.16486 | 8.85655 | 36155 ft | 427 kts | 1° |
| 2026-04-18 10:46 | 42.22422 | 8.85973 | 36153 ft | 426 kts | 1° |
| 2026-04-18 10:47 | 42.28351 | 8.86284 | 36139 ft | 427 kts | 1° |
| 2026-04-18 10:47 | 42.34290 | 8.86606 | 36135 ft | 427 kts | 1° |
| 2026-04-18 10:48 | 42.40274 | 8.86939 | 36136 ft | 427 kts | 1° |
| 2026-04-18 10:48 | 42.46199 | 8.87271 | 36130 ft | 426 kts | 1° |
| 2026-04-18 10:49 | 42.52133 | 8.87585 | 36132 ft | 427 kts | 1° |
| 2026-04-18 10:49 | 42.58076 | 8.87894 | 36139 ft | 427 kts | 1° |
| 2026-04-18 10:50 | 42.64015 | 8.88222 | 36142 ft | 427 kts | 1° |
| 2026-04-18 10:50 | 42.69956 | 8.88554 | 36149 ft | 427 kts | 1° |
| 2026-04-18 10:51 | 42.75901 | 8.88879 | 36148 ft | 427 kts | 1° |
| 2026-04-18 10:51 | 42.81843 | 8.89210 | 36147 ft | 427 kts | 1° |
| 2026-04-18 10:52 | 42.87778 | 8.89813 | 36142 ft | 428 kts | 4° |
| 2026-04-18 10:52 | 42.93702 | 8.90595 | 36149 ft | 428 kts | 4° |
| 2026-04-18 10:53 | 42.99636 | 8.91355 | 36151 ft | 428 kts | 4° |
| 2026-04-18 10:53 | 43.05565 | 8.92047 | 36149 ft | 428 kts | 3° |
| 2026-04-18 10:54 | 43.11492 | 8.92713 | 36147 ft | 428 kts | 3° |
| 2026-04-18 10:54 | 43.17425 | 8.93398 | 36155 ft | 428 kts | 3° |
| 2026-04-18 10:55 | 43.23408 | 8.94107 | 36156 ft | 428 kts | 3° |
| 2026-04-18 10:55 | 43.29342 | 8.94784 | 36154 ft | 428 kts | 3° |
| 2026-04-18 10:56 | 43.35271 | 8.95433 | 36159 ft | 428 kts | 3° |
| 2026-04-18 10:56 | 43.41210 | 8.95987 | 36160 ft | 427 kts | 0° |
| 2026-04-18 10:57 | 43.47155 | 8.96026 | 36163 ft | 427 kts | 358° |
| 2026-04-18 10:57 | 43.53093 | 8.95881 | 36159 ft | 427 kts | 358° |
| 2026-04-18 10:58 | 43.59025 | 8.95814 | 36153 ft | 427 kts | 358° |
| 2026-04-18 10:58 | 43.64964 | 8.95815 | 36149 ft | 427 kts | 358° |
| 2026-04-18 10:59 | 43.70904 | 8.95697 | 36155 ft | 427 kts | 357° |
| 2026-04-18 10:59 | 43.76845 | 8.95481 | 36162 ft | 427 kts | 357° |
| 2026-04-18 11:00 | 43.82781 | 8.95274 | 36161 ft | 427 kts | 357° |
| 2026-04-18 11:00 | 43.88676 | 8.95100 | 36152 ft | 426 kts | 357° |
| 2026-04-18 11:01 | 43.94615 | 8.94934 | 36153 ft | 426 kts | 357° |
| 2026-04-18 11:01 | 44.00552 | 8.94766 | 36146 ft | 427 kts | 357° |
| 2026-04-18 11:02 | 44.09505 | 8.94507 | 36152 ft | 427 kts | 357° |
| 2026-04-18 11:02 | 44.15416 | 8.94327 | 36153 ft | 428 kts | 356° |
| 2026-04-18 11:03 | 44.21396 | 8.94135 | 36157 ft | 428 kts | 357° |
| 2026-04-18 11:03 | 44.27352 | 8.93956 | 36159 ft | 428 kts | 356° |
| 2026-04-18 11:04 | 44.33310 | 8.93783 | 36163 ft | 428 kts | 356° |
| 2026-04-18 11:04 | 44.39273 | 8.93606 | 36168 ft | 429 kts | 356° |
| 2026-04-18 11:05 | 44.45239 | 8.93424 | 36169 ft | 429 kts | 356° |
| 2026-04-18 11:05 | 44.51204 | 8.93240 | 36160 ft | 429 kts | 356° |
| 2026-04-18 11:06 | 44.57175 | 8.93059 | 36158 ft | 429 kts | 356° |
| 2026-04-18 11:06 | 44.63143 | 8.92876 | 36160 ft | 429 kts | 356° |
| 2026-04-18 11:07 | 44.69112 | 8.92703 | 36157 ft | 429 kts | 356° |
| 2026-04-18 11:07 | 44.75087 | 8.92525 | 36157 ft | 429 kts | 356° |
| 2026-04-18 11:08 | 44.81072 | 8.92337 | 36165 ft | 430 kts | 356° |
| 2026-04-18 11:08 | 44.87049 | 8.92155 | 36179 ft | 430 kts | 356° |
| 2026-04-18 11:09 | 44.93036 | 8.91976 | 36187 ft | 430 kts | 356° |
| 2026-04-18 11:09 | 44.98953 | 8.91804 | 36196 ft | 431 kts | 356° |
| 2026-04-18 11:10 | 45.04950 | 8.91624 | 36205 ft | 431 kts | 356° |
| 2026-04-18 11:10 | 45.10994 | 8.91426 | 36202 ft | 431 kts | 356° |
| 2026-04-18 11:11 | 45.16951 | 8.91239 | 36201 ft | 432 kts | 356° |
| 2026-04-18 11:11 | 45.22965 | 8.91052 | 36191 ft | 432 kts | 356° |
| 2026-04-18 11:12 | 45.28965 | 8.90865 | 36165 ft | 432 kts | 356° |
| 2026-04-18 11:12 | 45.34993 | 8.90671 | 36163 ft | 432 kts | 356° |
| 2026-04-18 11:13 | 45.41006 | 8.90495 | 36166 ft | 433 kts | 356° |
| 2026-04-18 11:13 | 45.46912 | 8.90324 | 36167 ft | 433 kts | 356° |
| 2026-04-18 11:14 | 45.52946 | 8.90127 | 36171 ft | 434 kts | 356° |
| 2026-04-18 11:14 | 45.58981 | 8.89930 | 36174 ft | 434 kts | 356° |
| 2026-04-18 11:15 | 45.65013 | 8.89750 | 36174 ft | 434 kts | 356° |
| 2026-04-18 11:15 | 45.71056 | 8.89567 | 36170 ft | 434 kts | 356° |
| 2026-04-18 11:16 | 45.77093 | 8.89372 | 36171 ft | 434 kts | 356° |
| 2026-04-18 11:16 | 45.83137 | 8.89180 | 36155 ft | 435 kts | 356° |
| 2026-04-18 11:17 | 45.88202 | 8.89024 | 36155 ft | 435 kts | 356° |
| 2026-04-18 11:17 | 45.94241 | 8.88832 | 36149 ft | 435 kts | 356° |
| 2026-04-18 11:18 | 46.00297 | 8.88641 | 36151 ft | 435 kts | 356° |
| 2026-04-18 11:18 | 46.06351 | 8.88443 | 36149 ft | 435 kts | 356° |
| 2026-04-18 11:19 | 46.12409 | 8.88251 | 36150 ft | 435 kts | 356° |
| 2026-04-18 11:19 | 46.18456 | 8.87993 | 36154 ft | 434 kts | 353° |
| 2026-04-18 11:20 | 46.24472 | 8.87182 | 36144 ft | 433 kts | 351° |
| 2026-04-18 11:20 | 46.30461 | 8.86115 | 36144 ft | 434 kts | 350° |
| 2026-04-18 11:21 | 46.36461 | 8.85117 | 36154 ft | 435 kts | 351° |
| 2026-04-18 11:21 | 46.42482 | 8.84222 | 36179 ft | 435 kts | 352° |
| 2026-04-18 11:22 | 46.48501 | 8.83347 | 36197 ft | 434 kts | 351° |
| 2026-04-18 11:22 | 46.54515 | 8.82443 | 36180 ft | 434 kts | 351° |
| 2026-04-18 11:23 | 46.57523 | 8.81988 | 35890 ft | 433 kts | 351° |
| 2026-04-18 11:23 | 46.60526 | 8.81534 | 35022 ft | 436 kts | 351° |
| 2026-04-18 11:23 | 46.63539 | 8.81076 | 34208 ft | 436 kts | 351° |
| 2026-04-18 11:23 | 46.66612 | 8.80607 | 33185 ft | 441 kts | 351° |
| 2026-04-18 11:24 | 46.69447 | 8.80171 | 32212 ft | 444 kts | 351° |
| 2026-04-18 11:24 | 46.72531 | 8.79696 | 31192 ft | 446 kts | 351° |
| 2026-04-18 11:24 | 46.75629 | 8.79218 | 30083 ft | 449 kts | 351° |
| 2026-04-18 11:24 | 46.78753 | 8.78739 | 28750 ft | 453 kts | 351° |
| 2026-04-18 11:25 | 46.81924 | 8.78261 | 27945 ft | 447 kts | 352° |
| 2026-04-18 11:25 | 46.84950 | 8.77808 | 27237 ft | 440 kts | 352° |
| 2026-04-18 11:25 | 46.87982 | 8.77347 | 26462 ft | 435 kts | 351° |
| 2026-04-18 11:25 | 46.91020 | 8.76884 | 25696 ft | 431 kts | 351° |
| 2026-04-18 11:26 | 46.93954 | 8.76434 | 24975 ft | 426 kts | 352° |
| 2026-04-18 11:26 | 46.96925 | 8.75974 | 24251 ft | 421 kts | 351° |
| 2026-04-18 11:26 | 46.99795 | 8.75523 | 23479 ft | 419 kts | 351° |
| 2026-04-18 11:26 | 47.02672 | 8.74974 | 22737 ft | 413 kts | 346° |
| 2026-04-18 11:27 | 47.03487 | 8.74656 | 22631 ft | 406 kts | 339° |
| 2026-04-18 11:27 | 47.06058 | 8.73204 | 21885 ft | 400 kts | 333° |
| 2026-04-18 11:27 | 47.08459 | 8.71191 | 21251 ft | 395 kts | 324° |
| 2026-04-18 11:28 | 47.10570 | 8.68588 | 20624 ft | 390 kts | 313° |
| 2026-04-18 11:28 | 47.12383 | 8.65724 | 20039 ft | 386 kts | 312° |
| 2026-04-18 11:28 | 47.14216 | 8.62787 | 19463 ft | 383 kts | 312° |
| 2026-04-18 11:28 | 47.16007 | 8.59911 | 18900 ft | 381 kts | 312° |
| 2026-04-18 11:29 | 47.17790 | 8.57044 | 18340 ft | 378 kts | 312° |
| 2026-04-18 11:29 | 47.19551 | 8.54211 | 17770 ft | 374 kts | 312° |
| 2026-04-18 11:29 | 47.21305 | 8.51395 | 17231 ft | 370 kts | 312° |
| 2026-04-18 11:29 | 47.23036 | 8.48619 | 16693 ft | 367 kts | 312° |
| 2026-04-18 11:30 | 47.24753 | 8.45864 | 16141 ft | 364 kts | 312° |
| 2026-04-18 11:30 | 47.26462 | 8.43120 | 15567 ft | 363 kts | 312° |
| 2026-04-18 11:30 | 47.28159 | 8.40394 | 15012 ft | 361 kts | 312° |
| 2026-04-18 11:30 | 47.29858 | 8.37664 | 14426 ft | 360 kts | 312° |
| 2026-04-18 11:31 | 47.31545 | 8.34950 | 13820 ft | 359 kts | 311° |
| 2026-04-18 11:31 | 47.33222 | 8.32245 | 13183 ft | 357 kts | 311° |
| 2026-04-18 11:31 | 47.34886 | 8.29550 | 12577 ft | 354 kts | 311° |
| 2026-04-18 11:31 | 47.36537 | 8.26868 | 11961 ft | 352 kts | 311° |
| 2026-04-18 11:32 | 47.38183 | 8.24194 | 11337 ft | 350 kts | 311° |
| 2026-04-18 11:32 | 47.39816 | 8.21537 | 10799 ft | 348 kts | 311° |
| 2026-04-18 11:32 | 47.41401 | 8.18957 | 10665 ft | 332 kts | 311° |
| 2026-04-18 11:32 | 47.42925 | 8.16479 | 10546 ft | 319 kts | 311° |
| 2026-04-18 11:33 | 47.44382 | 8.14110 | 10423 ft | 305 kts | 311° |
| 2026-04-18 11:33 | 47.45793 | 8.11862 | 10297 ft | 292 kts | 316° |
| 2026-04-18 11:33 | 47.47486 | 8.10316 | 10143 ft | 284 kts | 340° |
| 2026-04-18 11:33 | 47.49453 | 8.09861 | 9684 ft | 294 kts | 2° |
| 2026-04-18 11:34 | 47.51403 | 8.10690 | 9112 ft | 292 kts | 28° |
| 2026-04-18 11:34 | 47.52947 | 8.12582 | 8425 ft | 289 kts | 51° |
| 2026-04-18 11:34 | 47.53913 | 8.15183 | 7734 ft | 288 kts | 65° |
| 2026-04-18 11:34 | 47.54720 | 8.17880 | 7074 ft | 286 kts | 65° |
| 2026-04-18 11:35 | 47.55525 | 8.20553 | 6484 ft | 282 kts | 65° |
| 2026-04-18 11:35 | 47.56311 | 8.23156 | 5789 ft | 279 kts | 65° |
| 2026-04-18 11:35 | 47.57103 | 8.25785 | 5308 ft | 271 kts | 65° |
| 2026-04-18 11:35 | 47.57850 | 8.28266 | 5126 ft | 249 kts | 65° |
| 2026-04-18 11:36 | 47.58523 | 8.30501 | 5016 ft | 228 kts | 65° |
| 2026-04-18 11:36 | 47.59157 | 8.32600 | 4886 ft | 221 kts | 65° |
| 2026-04-18 11:36 | 47.59549 | 8.34788 | 4647 ft | 217 kts | 86° |
| 2026-04-18 11:36 | 47.59405 | 8.37027 | 4446 ft | 219 kts | 107° |
| 2026-04-18 11:37 | 47.58754 | 8.39017 | 4215 ft | 214 kts | 128° |
| 2026-04-18 11:37 | 47.57714 | 8.40579 | 3959 ft | 216 kts | 138° |
| 2026-04-18 11:37 | 47.56611 | 8.42090 | 3675 ft | 216 kts | 138° |
| 2026-04-18 11:37 | 47.55494 | 8.43624 | 3388 ft | 221 kts | 138° |
| 2026-04-18 11:38 | 47.54379 | 8.45155 | 3092 ft | 212 kts | 138° |
| 2026-04-18 11:38 | 47.53331 | 8.46593 | 2831 ft | 199 kts | 137° |
| 2026-04-18 11:38 | 47.52339 | 8.47953 | 2556 ft | 188 kts | 138° |
| 2026-04-18 11:38 | 47.51430 | 8.49198 | 2332 ft | 167 kts | 137° |
| 2026-04-18 11:39 | 47.50625 | 8.50303 | 2097 ft | 150 kts | 136° |
| 2026-04-18 11:39 | 47.49889 | 8.51340 | 1846 ft | 144 kts | 136° |
| 2026-04-18 11:39 | 47.49157 | 8.52346 | 1710 ft | 144 kts | 137° |
| 2026-04-18 11:39 | 47.48415 | 8.53337 | 1505 ft | 143 kts | 137° |
| 2026-04-18 11:40 | 47.47703 | 8.54299 | 1405 ft | 130 kts | 137° |
| 2026-04-18 11:40 | 47.47214 | 8.54967 | 1384 ft | 74 kts | 137° |
| 2026-04-18 11:40 | 47.46891 | 8.55409 | 1395 ft | 52 kts | 137° |
| 2026-04-18 11:40 | 47.46681 | 8.55641 | 1401 ft | 26 kts | 159° |
| 2026-04-18 11:41 | 47.46579 | 8.55684 | 1402 ft | 11 kts | 167° |
| 2026-04-18 11:41 | 47.46554 | 8.55692 | 1398 ft | 10 kts | 167° |
| 2026-04-18 11:41 | 47.46512 | 8.55706 | 1396 ft | 9 kts | 167° |
| 2026-04-18 11:41 | 47.46457 | 8.55726 | 1399 ft | 7 kts | 167° |
| 2026-04-18 11:42 | 47.46413 | 8.55741 | 1401 ft | 8 kts | 167° |
| 2026-04-18 11:42 | 47.46359 | 8.55789 | 1402 ft | 9 kts | 138° |
| 2026-04-18 11:42 | 47.46306 | 8.55861 | 1405 ft | 12 kts | 136° |
| 2026-04-18 11:42 | 47.46236 | 8.55864 | 1406 ft | 14 kts | 240° |
| 2026-04-18 11:43 | 47.46240 | 8.55739 | 1406 ft | 14 kts | 276° |
| 2026-04-18 11:43 | 47.46251 | 8.55563 | 1404 ft | 14 kts | 275° |
| 2026-04-18 11:43 | 47.46238 | 8.55501 | 1401 ft | 6 kts | 190° |
| 2026-04-18 11:43 | 47.46191 | 8.55494 | 1401 ft | 5 kts | 186° |
| 2026-04-18 11:44 | 47.46167 | 8.55490 | 1403 ft | 0 kts | 185° |